createdAt,value
2018-07-08T00:00:38.884Z,101571.52
2018-07-08T00:03:10.313Z,101576.34
2018-07-08T00:05:41.133Z,101570.74
2018-07-08T00:08:12.218Z,101568.30
2018-07-08T00:10:50.155Z,101562.07
2018-07-08T00:13:21.519Z,101566.52
2018-07-08T00:15:52.526Z,101563.09
2018-07-08T00:18:25.061Z,101565.93
2018-07-08T00:20:56.786Z,101562.73
2018-07-08T00:23:27.875Z,101566.42
2018-07-08T00:25:58.946Z,101566.70
2018-07-08T00:28:30.009Z,101563.94
2018-07-08T00:31:01.432Z,101554.12
2018-07-08T00:33:32.993Z,101559.14
2018-07-08T00:36:04.126Z,101558.11
2018-07-08T00:38:35.527Z,101564.65
2018-07-08T00:41:06.737Z,101562.28
2018-07-08T00:43:37.679Z,101558.59
2018-07-08T00:46:08.388Z,101563.60
2018-07-08T00:48:39.420Z,101571.61
2018-07-08T00:51:10.802Z,101569.55
2018-07-08T00:53:41.829Z,101569.80
2018-07-08T00:56:12.845Z,101571.30
2018-07-08T00:58:43.926Z,101580.19
2018-07-08T01:01:15.175Z,101576.05
2018-07-08T01:03:46.173Z,101576.61
2018-07-08T01:06:17.257Z,101572.91
2018-07-08T01:08:48.677Z,101572.12
2018-07-08T01:11:19.539Z,101576.15
2018-07-08T01:13:50.343Z,101579.13
2018-07-08T01:16:21.351Z,101586.16
2018-07-08T01:18:52.428Z,101587.23
2018-07-08T01:21:23.227Z,101596.02
2018-07-08T01:23:54.200Z,101585.34
2018-07-08T01:26:25.857Z,101592.67
2018-07-08T01:28:56.993Z,101597.37
2018-07-08T01:31:28.046Z,101593.84
2018-07-08T01:33:59.578Z,101597.80
2018-07-08T01:36:30.967Z,101605.30
2018-07-08T01:39:01.727Z,101603.92
2018-07-08T01:41:32.730Z,101609.17
2018-07-08T01:44:04.002Z,101606.83
2018-07-08T01:46:34.990Z,101611.08
2018-07-08T01:49:06.369Z,101611.28
2018-07-08T01:51:37.370Z,101602.90
2018-07-08T01:54:08.122Z,101605.59
2018-07-08T01:56:38.859Z,101609.75
2018-07-08T01:59:10.106Z,101610.83
2018-07-08T02:01:41.298Z,101603.28
2018-07-08T02:04:12.981Z,101610.27
2018-07-08T02:06:43.762Z,101610.50
2018-07-08T02:09:14.277Z,101618.09
2018-07-08T02:11:45.436Z,101608.05
2018-07-08T02:14:16.221Z,101610.55
2018-07-08T02:16:47.043Z,101616.22
2018-07-08T02:19:18.138Z,101619.72
2018-07-08T02:21:49.410Z,101613.55
2018-07-08T02:24:20.752Z,101608.27
2018-07-08T02:26:51.764Z,101617.70
2018-07-08T02:29:22.915Z,101622.05
2018-07-08T02:31:53.966Z,101615.63
2018-07-08T02:34:25.510Z,101621.47
2018-07-08T02:36:56.566Z,101620.14
2018-07-08T02:39:28.068Z,101621.53
2018-07-08T02:41:58.811Z,101626.58
2018-07-08T02:44:30.082Z,101624.23
2018-07-08T02:47:01.862Z,101629.41
2018-07-08T02:49:33.106Z,101631.75
2018-07-08T02:52:04.079Z,101631.69
2018-07-08T02:54:35.074Z,101626.58
2018-07-08T02:57:06.118Z,101633.97
2018-07-08T02:59:37.364Z,101645.94
2018-07-08T03:02:09.134Z,101638.25
2018-07-08T03:04:40.145Z,101640.29
2018-07-08T03:07:11.162Z,101639.36
2018-07-08T03:09:42.316Z,101641.41
2018-07-08T03:12:13.315Z,101642.48
2018-07-08T03:14:44.339Z,101645.68
2018-07-08T03:17:15.347Z,101641.72
2018-07-08T03:19:46.371Z,101639.95
2018-07-08T03:22:17.558Z,101642.34
2018-07-08T03:24:48.251Z,101635.09
2018-07-08T03:27:19.280Z,101627.70
2018-07-08T03:29:50.332Z,101634.59
2018-07-08T03:32:21.318Z,101630.64
2018-07-08T03:34:52.340Z,101628.42
2018-07-08T03:37:23.695Z,101633.34
2018-07-08T03:39:54.753Z,101636.99
2018-07-08T03:42:25.769Z,101643.59
2018-07-08T03:44:56.785Z,101640.64
2018-07-08T03:47:27.770Z,101646.68
2018-07-08T03:49:58.767Z,101648.20
2018-07-08T03:52:30.139Z,101653.72
2018-07-08T03:55:01.479Z,101657.58
2018-07-08T03:57:32.432Z,101651.45
2018-07-08T04:00:03.866Z,101652.15
2018-07-08T04:02:34.581Z,101648.59
2018-07-08T04:05:05.810Z,101648.59
2018-07-08T04:07:36.820Z,101649.14
2018-07-08T04:10:08.208Z,101649.75
2018-07-08T04:12:39.657Z,101644.02
2018-07-08T04:15:10.413Z,101652.55
2018-07-08T04:17:41.967Z,101645.27
2018-07-08T04:20:13.014Z,101649.72
2018-07-08T04:22:44.049Z,101657.63
2018-07-08T04:25:15.072Z,101653.58
2018-07-08T04:27:46.113Z,101660.63
2018-07-08T04:30:17.474Z,101657.78
2018-07-08T04:32:48.690Z,101665.08
2018-07-08T04:35:19.685Z,101664.83
2018-07-08T04:37:50.801Z,101664.58
2018-07-08T04:40:21.754Z,101665.29
2018-07-08T04:42:52.834Z,101670.41
2018-07-08T04:45:23.921Z,101675.06
2018-07-08T04:47:54.645Z,101665.54
2018-07-08T04:50:25.667Z,101669.86
2018-07-08T04:52:57.011Z,101666.61
2018-07-08T04:55:27.804Z,101670.96
2018-07-08T04:57:58.971Z,101676.23
2018-07-08T05:00:30.422Z,101678.01
2018-07-08T05:03:01.404Z,101674.76
2018-07-08T05:05:32.443Z,101678.25
2018-07-08T05:08:03.716Z,101684.13
2018-07-08T05:10:34.803Z,101679.72
2018-07-08T05:13:05.839Z,101675.68
2018-07-08T05:15:37.282Z,101680.19
2018-07-08T05:18:08.331Z,101686.22
2018-07-08T05:20:39.644Z,101690.39
2018-07-08T05:23:10.663Z,101687.59
2018-07-08T05:25:42.038Z,101693.97
2018-07-08T05:28:13.025Z,101690.48
2018-07-08T05:30:44.033Z,101690.72
2018-07-08T05:33:15.015Z,101693.57
2018-07-08T05:35:46.075Z,101690.53
2018-07-08T05:38:17.238Z,101695.09
2018-07-08T05:40:48.121Z,101697.97
2018-07-08T05:43:19.031Z,101696.86
2018-07-08T05:45:49.911Z,101694.62
2018-07-08T05:48:21.093Z,101696.40
2018-07-08T05:50:52.457Z,101703.95
2018-07-08T05:53:23.469Z,101703.08
2018-07-08T05:55:54.443Z,101704.22
2018-07-08T05:58:25.417Z,101700.73
2018-07-08T06:00:56.501Z,101701.86
2018-07-08T06:03:27.518Z,101707.14
2018-07-08T06:05:58.571Z,101681.58
2018-07-08T06:08:29.655Z,101701.67
2018-07-08T06:11:00.541Z,101707.09
2018-07-08T06:13:31.433Z,101703.73
2018-07-08T06:16:02.616Z,101710.82
2018-07-08T06:18:33.963Z,101700.61
2018-07-08T06:21:05.218Z,101698.25
2018-07-08T06:23:35.917Z,101694.78
2018-07-08T06:26:07.344Z,101689.15
2018-07-08T06:28:38.710Z,101698.58
2018-07-08T06:31:09.623Z,101700.64
2018-07-08T06:33:40.650Z,101698.63
2018-07-08T06:36:11.745Z,101701.66
2018-07-08T06:38:42.920Z,101693.51
2018-07-08T06:41:14.271Z,101687.40
2018-07-08T06:43:45.308Z,101682.03
2018-07-08T06:46:16.318Z,101685.54
2018-07-08T06:48:47.392Z,101682.52
2018-07-08T06:51:18.372Z,101681.89
2018-07-08T06:53:49.495Z,101679.63
2018-07-08T06:56:20.525Z,101674.42
2018-07-08T06:58:52.080Z,101672.65
2018-07-08T07:01:23.101Z,101674.89
2018-07-08T07:03:54.192Z,101681.67
2018-07-08T07:06:24.960Z,101671.77
2018-07-08T07:08:56.296Z,101673.06
2018-07-08T07:11:27.606Z,101667.72
2018-07-08T07:13:58.714Z,101676.12
2018-07-08T07:16:29.767Z,101677.93
2018-07-08T07:19:00.761Z,101665.91
2018-07-08T07:21:31.797Z,101670.75
2018-07-08T07:24:02.806Z,101672.30
2018-07-08T07:26:34.399Z,101663.19
2018-07-08T07:29:05.792Z,101665.11
2018-07-08T07:31:36.849Z,101664.13
2018-07-08T07:34:08.698Z,101663.11
2018-07-08T07:36:39.615Z,101667.37
2018-07-08T07:39:10.863Z,101663.16
2018-07-08T07:41:41.645Z,101664.80
2018-07-08T07:44:13.026Z,101668.92
2018-07-08T07:46:44.033Z,101674.70
2018-07-08T07:49:15.047Z,101680.64
2018-07-08T07:51:46.065Z,101672.84
2018-07-08T07:54:17.171Z,101664.61
2018-07-08T07:56:48.653Z,101661.34
2018-07-08T07:59:19.846Z,101665.38
2018-07-08T08:01:51.084Z,101665.02
2018-07-08T08:04:22.173Z,101661.86
2018-07-08T08:06:53.465Z,101668.17
2018-07-08T08:09:24.496Z,101665.05
2018-07-08T08:11:55.501Z,101661.77
2018-07-08T08:14:26.691Z,101663.56
2018-07-08T08:16:57.841Z,101658.28
2018-07-08T08:19:28.856Z,101664.49
2018-07-08T08:21:59.970Z,101643.59
2018-07-08T08:24:31.365Z,101658.50
2018-07-08T08:27:02.425Z,101660.59
2018-07-08T08:32:03.284Z,101659.59
2018-07-08T08:34:54.418Z,101665.20
2018-07-08T08:37:28.058Z,101656.45
2018-07-08T08:39:58.863Z,101657.78
2018-07-08T08:42:29.766Z,101653.34
2018-07-08T08:45:01.198Z,101658.70
2018-07-08T08:47:34.521Z,101659.80
2018-07-08T08:50:07.650Z,101658.11
2018-07-08T08:52:38.874Z,101656.32
2018-07-08T08:55:10.898Z,101653.38
2018-07-08T08:57:42.194Z,101655.41
2018-07-08T09:00:15.689Z,101650.45
2018-07-08T09:02:47.127Z,101659.45
2018-07-08T09:05:18.480Z,101657.53
2018-07-08T09:07:49.559Z,101662.97
2018-07-08T09:10:20.602Z,101673.72
2018-07-08T09:12:51.610Z,101662.73
2018-07-08T09:15:22.658Z,101657.78
2018-07-08T09:17:53.643Z,101649.58
2018-07-08T09:20:25.030Z,101657.37
2018-07-08T09:22:56.038Z,101653.92
2018-07-08T09:25:27.054Z,101659.21
2018-07-08T09:27:58.140Z,101663.16
2018-07-08T09:30:29.212Z,101667.89
2018-07-08T09:32:59.992Z,101666.42
2018-07-08T09:35:31.007Z,101672.20
2018-07-08T09:38:02.057Z,101667.68
2018-07-08T09:40:33.140Z,101670.41
2018-07-08T09:43:05.277Z,101669.62
2018-07-08T09:45:36.336Z,101667.31
2018-07-08T09:48:07.159Z,101656.31
2018-07-08T09:50:38.449Z,101665.83
2018-07-08T09:53:12.108Z,101664.50
2018-07-08T09:55:43.181Z,101668.08
2018-07-08T09:58:14.256Z,101669.70
2018-07-08T10:00:45.390Z,101669.52
2018-07-08T10:03:18.835Z,101663.69
2018-07-08T10:05:50.091Z,101654.55
2018-07-08T10:08:21.122Z,101641.66
2018-07-08T10:10:52.533Z,101648.64
2018-07-08T10:13:24.381Z,101647.43
2018-07-08T10:15:55.187Z,101646.34
2018-07-08T10:18:26.253Z,101644.20
2018-07-08T10:20:57.774Z,101647.09
2018-07-08T10:23:28.796Z,101644.85
2018-07-08T10:25:59.842Z,101643.98
2018-07-08T10:28:30.943Z,101640.78
2018-07-08T10:31:02.215Z,101648.73
2018-07-08T10:34:06.381Z,101652.08
2018-07-08T10:36:37.925Z,101653.86
2018-07-08T10:39:11.396Z,101648.88
2018-07-08T10:41:42.949Z,101642.56
2018-07-08T10:44:14.139Z,101643.77
2018-07-08T10:46:45.123Z,101643.42
2018-07-08T10:49:16.273Z,101635.75
2018-07-08T10:51:47.360Z,101635.27
2018-07-08T10:54:18.574Z,101646.23
2018-07-08T10:56:49.624Z,101626.45
2018-07-08T10:59:20.792Z,101631.62
2018-07-08T11:01:51.936Z,101629.64
2018-07-08T11:04:23.375Z,101630.84
2018-07-08T11:06:54.420Z,101632.92
2018-07-08T11:09:25.413Z,101632.05
2018-07-08T11:11:56.325Z,101631.94
2018-07-08T11:14:27.595Z,101635.94
2018-07-08T11:16:58.598Z,101633.23
2018-07-08T11:19:29.798Z,101606.61
2018-07-08T11:22:00.810Z,101618.30
2018-07-08T11:24:31.843Z,101619.17
2018-07-08T11:27:02.882Z,101627.91
2018-07-08T11:29:33.974Z,101620.75
2018-07-08T11:32:05.090Z,101611.06
2018-07-08T11:34:35.864Z,101605.48
2018-07-08T11:37:06.886Z,101605.00
2018-07-08T11:39:37.909Z,101605.45
2018-07-08T11:42:09.119Z,101597.22
2018-07-08T11:44:40.320Z,101588.26
2018-07-08T11:47:14.511Z,101595.94
2018-07-08T11:49:45.951Z,101591.03
2018-07-08T11:52:17.479Z,101596.94
2018-07-08T11:54:48.499Z,101593.67
2018-07-08T11:57:19.575Z,101592.88
2018-07-08T11:59:50.938Z,101594.97
2018-07-08T12:02:22.072Z,101591.25
2018-07-08T12:04:53.242Z,101589.66
2018-07-08T12:07:24.375Z,101579.20
2018-07-08T12:09:55.648Z,101578.63
2018-07-08T12:12:27.089Z,101578.89
2018-07-08T12:14:58.195Z,101581.13
2018-07-08T12:17:29.701Z,101573.38
2018-07-08T12:20:00.737Z,101575.73
2018-07-08T12:22:32.153Z,101577.91
2018-07-08T12:25:03.169Z,101547.08
2018-07-08T12:27:34.263Z,101575.06
2018-07-08T12:30:05.546Z,101569.35
2018-07-08T12:32:36.555Z,101569.94
2018-07-08T12:35:07.942Z,101568.36
2018-07-08T12:37:39.051Z,101566.20
2018-07-08T12:40:10.239Z,101568.30
2018-07-08T12:42:41.338Z,101557.12
2018-07-08T12:45:12.588Z,101564.05
2018-07-08T12:47:43.496Z,101560.02
2018-07-08T12:50:14.480Z,101564.99
2018-07-08T12:52:45.522Z,101557.31
2018-07-08T12:55:16.704Z,101554.42
2018-07-08T12:57:48.023Z,101552.60
2018-07-08T13:00:19.097Z,101550.72
2018-07-08T13:02:50.102Z,101550.36
2018-07-08T13:05:21.101Z,101543.32
2018-07-08T13:07:52.071Z,101532.98
2018-07-08T13:10:23.572Z,101534.87
2018-07-08T13:12:54.380Z,101529.72
2018-07-08T13:15:25.413Z,101544.23
2018-07-08T13:17:56.841Z,101539.78
2018-07-08T13:20:28.001Z,101540.46
2018-07-08T13:22:59.025Z,101533.98
2018-07-08T13:25:30.298Z,101521.77
2018-07-08T13:28:01.343Z,101524.56
2018-07-08T13:30:32.686Z,101524.41
2018-07-08T13:33:03.879Z,101527.05
2018-07-08T13:35:35.198Z,101526.05
2018-07-08T13:38:06.910Z,101528.92
2018-07-08T13:40:38.175Z,101534.35
2018-07-08T13:43:09.607Z,101534.23
2018-07-08T13:45:40.618Z,101530.41
2018-07-08T13:48:11.706Z,101521.46
2018-07-08T13:50:42.878Z,101527.95
2018-07-08T13:53:14.106Z,101526.69
2018-07-08T13:55:45.188Z,101526.73
2018-07-08T13:58:16.377Z,101525.63
2018-07-08T14:00:47.593Z,101521.91
2018-07-08T14:03:18.773Z,101527.53
2018-07-08T14:05:49.748Z,101521.70
2018-07-08T14:08:20.834Z,101524.73
2018-07-08T14:10:52.212Z,101522.39
2018-07-08T14:13:23.287Z,101520.97
2018-07-08T14:15:54.299Z,101523.69
2018-07-08T14:18:25.367Z,101509.22
2018-07-08T14:20:57.563Z,101507.27
2018-07-08T14:23:28.802Z,101503.86
2018-07-08T14:25:59.840Z,101505.87
2018-07-08T14:28:30.719Z,101506.48
2018-07-08T14:31:01.616Z,101507.63
2018-07-08T14:33:32.892Z,101507.38
2018-07-08T14:36:03.916Z,101502.48
2018-07-08T14:38:35.293Z,101500.78
2018-07-08T14:41:06.465Z,101494.02
2018-07-08T14:43:37.518Z,101493.44
2018-07-08T14:46:08.592Z,101495.48
2018-07-08T14:48:40.164Z,101497.78
2018-07-08T14:51:11.269Z,101496.47
2018-07-08T14:53:42.624Z,101504.83
2018-07-08T14:56:13.651Z,101491.95
2018-07-08T14:58:44.675Z,101493.05
2018-07-08T15:01:15.684Z,101490.21
2018-07-08T15:03:46.908Z,101489.23
2018-07-08T15:06:17.959Z,101492.78
2018-07-08T15:08:48.951Z,101487.38
2018-07-08T15:11:19.972Z,101493.42
2018-07-08T15:13:51.022Z,101479.95
2018-07-08T15:16:22.108Z,101476.86
2018-07-08T15:18:53.242Z,101476.14
2018-07-08T15:21:24.295Z,101483.01
2018-07-08T15:23:55.337Z,101480.52
2018-07-08T15:26:26.173Z,101473.17
2018-07-08T15:28:57.582Z,101486.20
2018-07-08T15:31:28.384Z,101478.99
2018-07-08T15:33:59.737Z,101474.03
2018-07-08T15:36:31.131Z,101472.12
2018-07-08T15:39:02.210Z,101471.56
2018-07-08T15:41:33.952Z,101472.48
2018-07-08T15:44:05.155Z,101468.61
2018-07-08T15:46:35.900Z,101471.09
2018-07-08T15:49:06.959Z,101468.48
2018-07-08T15:51:38.310Z,101468.97
2018-07-08T15:54:09.417Z,101466.63
2018-07-08T15:56:40.714Z,101461.00
2018-07-08T15:59:11.772Z,101465.40
2018-07-08T16:01:42.836Z,101469.54
2018-07-08T16:04:14.101Z,101469.10
2018-07-08T16:06:44.912Z,101464.20
2018-07-08T16:09:16.607Z,101458.95
2018-07-08T16:11:47.635Z,101448.49
2018-07-08T16:14:19.303Z,101460.44
2018-07-08T16:16:50.731Z,101448.24
2018-07-08T16:19:21.756Z,101453.77
2018-07-08T16:21:52.828Z,101447.20
2018-07-08T16:24:23.627Z,101447.97
2018-07-08T16:26:54.648Z,101447.09
2018-07-08T16:29:26.103Z,101448.73
2018-07-08T16:31:57.143Z,101451.56
2018-07-08T16:34:28.322Z,101457.51
2018-07-08T16:36:59.366Z,101450.13
2018-07-08T16:39:30.374Z,101454.39
2018-07-08T16:42:01.379Z,101449.67
2018-07-08T16:44:32.424Z,101450.13
2018-07-08T16:47:03.522Z,101437.49
2018-07-08T16:49:34.509Z,101432.53
2018-07-08T16:52:05.538Z,101443.86
2018-07-08T16:54:36.892Z,101445.17
2018-07-08T16:57:07.872Z,101445.83
2018-07-08T16:59:42.829Z,101440.80
2018-07-08T17:02:14.401Z,101445.30
2018-07-08T17:04:45.544Z,101440.30
2018-07-08T17:07:16.697Z,101442.69
2018-07-08T17:09:47.967Z,101445.92
2018-07-08T17:12:18.967Z,101441.27
2018-07-08T17:14:49.993Z,101445.39
2018-07-08T17:17:21.031Z,101439.81
2018-07-08T17:19:51.795Z,101441.28
2018-07-08T17:22:23.286Z,101437.43
2018-07-08T17:24:54.078Z,101429.46
2018-07-08T17:27:25.671Z,101439.84
2018-07-08T17:29:57.072Z,101436.48
2018-07-08T17:32:28.888Z,101435.64
2018-07-08T17:35:01.854Z,101433.13
2018-07-08T17:37:32.926Z,101446.52
2018-07-08T17:40:04.043Z,101440.03
2018-07-08T17:42:35.126Z,101445.94
2018-07-08T17:45:06.970Z,101448.45
2018-07-08T17:47:38.136Z,101437.03
2018-07-08T17:50:09.965Z,101439.22
2018-07-08T17:52:40.758Z,101439.14
2018-07-08T17:55:11.710Z,101436.00
2018-07-08T17:57:43.047Z,101429.38
2018-07-08T18:00:15.148Z,101432.34
2018-07-08T18:02:46.151Z,101434.31
2018-07-08T18:05:17.145Z,101432.41
2018-07-08T18:07:48.595Z,101426.05
2018-07-08T18:10:19.569Z,101435.34
2018-07-08T18:12:50.713Z,101430.95
2018-07-08T18:15:21.702Z,101437.93
2018-07-08T18:17:52.796Z,101442.31
2018-07-08T18:20:23.663Z,101441.17
2018-07-08T18:22:55.118Z,101438.50
2018-07-08T18:25:26.116Z,101443.08
2018-07-08T18:27:57.159Z,101439.71
2018-07-08T18:30:28.221Z,101436.63
2018-07-08T18:32:59.266Z,101436.72
2018-07-08T18:35:30.026Z,101434.73
2018-07-08T18:38:01.770Z,101438.49
2018-07-08T18:40:33.300Z,101438.42
2018-07-08T18:43:04.701Z,101441.78
2018-07-08T18:45:35.700Z,101433.22
2018-07-08T18:48:06.821Z,101433.48
2018-07-08T18:50:38.582Z,101430.55
2018-07-08T18:53:10.147Z,101430.30
2018-07-08T18:55:41.194Z,101439.05
2018-07-08T18:58:12.339Z,101431.45
2018-07-08T19:00:44.194Z,101434.40
2018-07-08T19:03:15.520Z,101434.97
2018-07-08T19:05:46.688Z,101430.84
2018-07-08T19:08:18.028Z,101427.66
2018-07-08T19:10:49.174Z,101435.45
2018-07-08T19:13:20.662Z,101442.49
2018-07-08T19:15:52.480Z,101438.33
2018-07-08T19:18:23.572Z,101432.98
2018-07-08T19:20:55.218Z,101445.65
2018-07-08T19:23:26.411Z,101445.16
2018-07-08T19:25:57.646Z,101440.58
2018-07-08T19:28:29.176Z,101445.59
2018-07-08T19:31:00.633Z,101447.90
2018-07-08T19:33:31.771Z,101444.83
2018-07-08T19:36:04.012Z,101455.94
2018-07-08T19:38:35.354Z,101457.64
2018-07-08T19:41:06.921Z,101453.05
2018-07-08T19:43:39.033Z,101458.03
2018-07-08T19:46:10.442Z,101457.30
2018-07-08T19:48:41.929Z,101462.20
2018-07-08T19:51:13.519Z,101464.88
2018-07-08T19:53:44.990Z,101463.92
2018-07-08T19:56:16.056Z,101463.59
2018-07-08T19:58:47.765Z,101467.64
2018-07-08T20:01:18.829Z,101476.28
2018-07-08T20:03:50.020Z,101463.95
2018-07-08T20:06:20.807Z,101474.41
2018-07-08T20:08:52.646Z,101474.45
2018-07-08T20:11:24.368Z,101471.62
2018-07-08T20:13:55.394Z,101481.07
2018-07-08T20:16:27.081Z,101476.30
2018-07-08T20:18:58.539Z,101475.97
2018-07-08T20:21:29.695Z,101478.89
2018-07-08T20:24:00.858Z,101484.27
2018-07-08T20:26:31.890Z,101479.34
2018-07-08T20:29:03.395Z,101487.97
2018-07-08T20:31:34.427Z,101488.71
2018-07-08T20:34:05.788Z,101489.34
2018-07-08T20:36:36.982Z,101489.48
2018-07-08T20:39:09.196Z,101492.55
2018-07-08T20:41:40.411Z,101489.43
2018-07-08T20:44:11.152Z,101482.28
2018-07-08T20:46:42.608Z,101482.55
2018-07-08T20:49:14.855Z,101487.30
2018-07-08T20:51:46.010Z,101486.00
2018-07-08T20:54:16.856Z,101491.14
2018-07-08T20:56:48.621Z,101500.36
2018-07-08T20:59:20.063Z,101505.09
2018-07-08T21:01:51.146Z,101502.34
2018-07-08T21:04:22.984Z,101503.82
2018-07-08T21:06:54.389Z,101505.77
2018-07-08T21:09:25.761Z,101504.06
2018-07-08T21:11:56.776Z,101512.91
2018-07-08T21:14:28.184Z,101512.91
2018-07-08T21:16:59.212Z,101516.67
2018-07-08T21:19:30.455Z,101514.73
2018-07-08T21:22:01.482Z,101511.37
2018-07-08T21:24:32.679Z,101521.64
2018-07-08T21:27:03.866Z,101523.59
2018-07-08T21:29:34.993Z,101515.14
2018-07-08T21:32:05.729Z,101518.72
2018-07-08T21:34:36.701Z,101522.18
2018-07-08T21:37:08.068Z,101516.66
2018-07-08T21:39:39.095Z,101524.03
2018-07-08T21:42:10.184Z,101519.45
2018-07-08T21:44:43.316Z,101521.98
2018-07-08T21:47:14.421Z,101524.55
2018-07-08T21:49:45.534Z,101523.21
2018-07-08T21:52:16.919Z,101527.91
2018-07-08T21:54:48.343Z,101525.48
2018-07-08T21:57:19.489Z,101528.94
2018-07-08T21:59:50.730Z,101532.28
2018-07-08T22:02:22.753Z,101530.38
2018-07-08T22:04:53.479Z,101530.14
2018-07-08T22:07:28.665Z,101537.37
2018-07-08T22:09:59.690Z,101536.27
2018-07-08T22:12:31.032Z,101541.47
2018-07-08T22:15:02.028Z,101537.95
2018-07-08T22:17:33.362Z,101541.92
2018-07-08T22:20:04.725Z,101546.86
2018-07-08T22:22:35.820Z,101538.94
2018-07-08T22:25:06.607Z,101544.63
2018-07-08T22:27:37.230Z,101549.92
2018-07-08T22:30:08.740Z,101546.16
2018-07-08T22:32:39.832Z,101543.82
2018-07-08T22:35:10.852Z,101550.84
2018-07-08T22:37:41.888Z,101550.21
2018-07-08T22:40:12.897Z,101545.03
2018-07-08T22:42:44.317Z,101551.16
2018-07-08T22:45:15.724Z,101552.84
2018-07-08T22:47:46.930Z,101548.37
2018-07-08T22:50:18.012Z,101548.54
2018-07-08T22:52:49.000Z,101544.55
2018-07-08T22:55:20.405Z,101544.33
2018-07-08T22:57:51.498Z,101545.05
2018-07-08T23:00:39.687Z,101557.39
2018-07-08T23:03:50.085Z,101552.30
2018-07-08T23:06:21.196Z,101554.55
2018-07-08T23:08:52.807Z,101564.09
2018-07-08T23:11:24.589Z,101560.83
2018-07-08T23:13:56.771Z,101562.55
2018-07-08T23:16:28.072Z,101557.86
2018-07-08T23:18:59.220Z,101557.95
2018-07-08T23:21:30.611Z,101550.94
2018-07-08T23:24:01.453Z,101550.50
2018-07-08T23:26:32.663Z,101553.72
2018-07-08T23:29:03.403Z,101557.92
2018-07-08T23:31:34.720Z,101570.78
2018-07-08T23:34:05.770Z,101570.83
2018-07-08T23:36:36.820Z,101574.73
2018-07-08T23:39:07.802Z,101571.95
2018-07-08T23:41:39.209Z,101568.70
2018-07-08T23:44:10.412Z,101572.69
2018-07-08T23:46:41.476Z,101572.67
2018-07-08T23:49:12.625Z,101567.97
2018-07-08T23:51:43.501Z,101561.08
2018-07-08T23:54:14.553Z,101565.56
2018-07-08T23:56:45.961Z,101560.94
2018-07-08T23:59:16.757Z,101560.00
